Time;durP1;ratioP1;P1;durP2;ratioP2;P2;SDS_P1;SDS_P2;PMS_P1;PMS_P2;Temp;Humidity;BMP_temperature;BMP_pressure;BME280_temperature;BME280_humidity;BME280_pressure;Samples;Min_cycle;Max_cycle;Signal;HPM_P1;HPM_P2
2023/05/02 00:01:26;;;;;;;3.95;3.20;;;9.70;99.90;;;;;;5027916;28;20040;-37
2023/05/02 00:03:51;;;;;;;3.45;3.15;;;9.70;99.90;;;;;;5017868;28;20088;-37
2023/05/02 00:06:17;;;;;;;4.10;3.70;;;9.70;99.90;;;;;;5020977;28;20133;-38
2023/05/02 00:08:43;;;;;;;4.20;3.38;;;9.70;99.90;;;;;;5028954;28;20056;-38
2023/05/02 00:11:09;;;;;;;4.43;3.60;;;9.70;99.90;;;;;;5024219;28;20099;-38
2023/05/02 00:13:34;;;;;;;4.75;3.30;;;9.60;99.90;;;;;;5020088;28;20022;-38
2023/05/02 00:16:00;;;;;;;5.28;3.70;;;9.60;99.90;;;;;;5021023;28;20482;-38
2023/05/02 00:18:26;;;;;;;4.32;3.25;;;9.70;99.90;;;;;;5023924;28;20056;-38
2023/05/02 00:20:51;;;;;;;5.00;3.25;;;9.60;99.90;;;;;;5022617;28;20032;-38
2023/05/02 00:23:17;;;;;;;4.03;3.40;;;9.60;99.90;;;;;;5020701;28;20125;-38
2023/05/02 00:25:45;;;;;;;4.07;3.30;;;9.60;99.90;;;;;;5025942;28;20101;-37
2023/05/02 00:28:12;;;;;;;4.07;3.28;;;9.60;99.90;;;;;;5018727;28;20021;-38
2023/05/02 00:30:42;;;;;;;5.72;3.55;;;9.50;99.90;;;;;;5023701;28;20132;-37
2023/05/02 00:33:08;;;;;;;4.32;3.28;;;9.50;99.90;;;;;;5019448;28;20106;-38
2023/05/02 00:35:34;;;;;;;3.92;3.30;;;9.50;99.90;;;;;;5027128;28;20075;-38
2023/05/02 00:37:59;;;;;;;3.95;3.13;;;9.50;99.90;;;;;;5027677;28;20038;-38
2023/05/02 00:40:25;;;;;;;5.07;3.38;;;9.40;99.90;;;;;;5024220;28;20034;-38
2023/05/02 00:42:51;;;;;;;3.35;2.78;;;9.40;99.90;;;;;;5023499;28;20403;-38
2023/05/02 00:45:17;;;;;;;4.63;3.33;;;9.40;99.90;;;;;;5025295;28;20033;-37
2023/05/02 00:47:43;;;;;;;3.88;3.05;;;9.40;99.90;;;;;;5021919;28;20040;-38
2023/05/02 00:50:08;;;;;;;3.30;3.00;;;9.40;99.90;;;;;;5022784;28;20045;-38
2023/05/02 00:52:34;;;;;;;3.30;2.90;;;9.40;99.90;;;;;;5026430;28;22293;-38
2023/05/02 00:55:01;;;;;;;4.80;2.90;;;9.30;99.90;;;;;;5025921;28;20079;-38
2023/05/02 00:57:27;;;;;;;4.13;3.08;;;9.40;99.90;;;;;;5028040;28;20599;-37
2023/05/02 00:59:52;;;;;;;3.67;3.13;;;9.30;99.90;;;;;;5022624;28;20056;-37
2023/05/02 01:02:33;;;;;;;3.03;2.70;;;9.40;99.90;;;;;;5023118;28;20164;-41
2023/05/02 01:05:19;;;;;;;3.65;2.92;;;9.30;99.90;;;;;;5028364;28;20030;-41
2023/05/02 01:08:13;;;;;;;3.35;2.70;;;9.30;99.90;;;;;;5025199;28;20068;-41
2023/05/02 01:10:54;;;;;;;3.13;2.78;;;9.30;99.90;;;;;;5025028;28;20095;-42
2023/05/02 01:13:25;;;;;;;3.25;2.90;;;9.30;99.90;;;;;;5030205;28;20490;-41
2023/05/02 01:21:49;;;;;;;3.92;3.00;;;9.30;99.90;;;;;;4978146;28;20082;-75
2023/05/02 01:24:26;;;;;;;4.38;2.60;;;9.20;99.90;;;;;;4981317;28;20065;-74
2023/05/02 01:27:14;;;;;;;2.55;2.35;;;9.20;99.90;;;;;;4964725;28;20027;-75
2023/05/02 01:29:41;;;;;;;3.10;2.80;;;9.20;99.90;;;;;;4981341;28;20023;-75
2023/05/02 01:32:09;;;;;;;3.65;2.92;;;9.10;99.90;;;;;;4983198;28;20332;-74
2023/05/02 01:34:39;;;;;;;2.80;2.55;;;9.10;99.90;;;;;;4983172;28;20110;-75
2023/05/02 01:37:05;;;;;;;3.30;3.00;;;9.00;99.90;;;;;;4982918;28;20042;-75
2023/05/02 01:39:33;;;;;;;2.97;2.67;;;9.00;99.90;;;;;;4986218;28;20479;-75
2023/05/02 01:42:02;;;;;;;4.13;2.80;;;9.00;99.90;;;;;;4987023;28;20122;-74
2023/05/02 01:44:29;;;;;;;4.90;2.90;;;9.00;99.90;;;;;;4987184;28;20035;-75
2023/05/02 01:46:56;;;;;;;3.47;2.75;;;9.00;99.90;;;;;;4984709;28;20031;-75
2023/05/02 01:49:24;;;;;;;3.38;2.63;;;8.90;99.90;;;;;;4968931;28;20445;-74
2023/05/02 01:51:51;;;;;;;3.20;2.70;;;8.90;99.90;;;;;;4983216;28;20030;-75
2023/05/02 01:54:20;;;;;;;4.47;2.88;;;8.90;99.90;;;;;;4985315;28;20391;-75
2023/05/02 01:56:48;;;;;;;6.65;3.00;;;8.90;99.90;;;;;;4985543;28;20023;-75
2023/05/02 01:59:17;;;;;;;3.88;2.60;;;8.90;99.90;;;;;;4984792;28;20034;-75
2023/05/02 02:01:44;;;;;;;2.55;2.35;;;8.80;99.90;;;;;;4985434;28;20043;-75
2023/05/02 02:04:12;;;;;;;2.63;2.42;;;8.90;99.90;;;;;;4984934;28;20467;-74
2023/05/02 02:06:41;;;;;;;3.03;2.67;;;8.80;99.90;;;;;;4982965;28;20533;-75
2023/05/02 02:09:07;;;;;;;;;;;8.90;99.90;;;;;;4985601;28;20035;-75
2023/05/02 02:11:45;;;;;;;3.58;3.00;;;8.90;99.90;;;;;;4986664;28;19917;-74
2023/05/02 02:14:34;;;;;;;3.72;2.80;;;8.90;99.90;;;;;;4984157;28;20109;-75
2023/05/02 02:17:04;;;;;;;2.65;2.42;;;8.90;99.90;;;;;;4984514;28;20031;-75
2023/05/02 02:19:32;;;;;;;4.22;2.80;;;8.80;99.90;;;;;;4983853;28;20030;-75
2023/05/02 02:21:59;;;;;;;3.15;2.63;;;8.80;99.90;;;;;;4984911;28;20054;-75
2023/05/02 02:24:25;;;;;;;3.15;2.85;;;8.80;99.90;;;;;;4984822;28;20114;-74
2023/05/02 02:26:51;;;;;;;3.30;3.00;;;8.80;99.90;;;;;;4985085;28;20035;-75
2023/05/02 02:29:17;;;;;;;3.95;2.80;;;8.70;99.90;;;;;;4984222;28;20038;-74
2023/05/02 02:31:43;;;;;;;4.53;2.95;;;8.70;99.90;;;;;;4984131;28;20034;-75
2023/05/02 02:34:09;;;;;;;2.85;2.60;;;8.60;99.90;;;;;;4968301;28;20038;-75
2023/05/02 02:36:45;;;;;;;3.58;2.72;;;8.70;99.90;;;;;;4983981;28;20030;-75
2023/05/02 02:39:46;;;;;;;3.55;2.80;;;8.70;99.90;;;;;;4984119;28;20041;-75
2023/05/02 02:42:23;;;;;;;2.83;2.50;;;8.60;99.90;;;;;;4984536;28;20042;-74
2023/05/02 02:45:08;;;;;;;3.60;2.90;;;8.60;99.90;;;;;;4984452;28;20372;-75
2023/05/02 02:47:47;;;;;;;4.93;3.00;;;8.60;99.90;;;;;;4984411;28;20027;-75
2023/05/02 02:50:16;;;;;;;3.33;2.28;;;8.60;99.90;;;;;;4982938;28;20046;-75
2023/05/02 02:53:04;;;;;;;2.72;2.30;;;8.60;99.90;;;;;;4984153;28;20117;-74
2023/05/02 02:55:54;;;;;;;3.03;2.70;;;8.50;99.90;;;;;;4984461;28;20496;-75
2023/05/02 02:58:56;;;;;;;3.50;2.80;;;8.40;99.90;;;;;;4983993;28;20035;-74
2023/05/02 03:01:25;;;;;;;3.80;2.90;;;8.40;99.90;;;;;;4965010;28;20039;-74
2023/05/02 03:03:52;;;;;;;5.85;3.17;;;8.40;99.90;;;;;;4983518;28;20031;-75
2023/05/02 03:06:18;;;;;;;2.85;2.55;;;8.40;99.90;;;;;;4984165;28;20031;-75
2023/05/02 03:08:44;;;;;;;3.15;2.45;;;8.40;99.90;;;;;;4966245;28;20029;-75
2023/05/02 03:11:13;;;;;;;3.67;2.55;;;8.30;99.90;;;;;;4983918;28;20030;-75
2023/05/02 03:13:39;;;;;;;3.72;2.88;;;8.30;99.90;;;;;;4983783;28;20071;-74
2023/05/02 03:16:34;;;;;;;2.65;2.45;;;8.30;99.90;;;;;;4983585;28;20035;-75
2023/05/02 03:19:00;;;;;;;3.78;2.85;;;8.20;99.90;;;;;;4984243;28;20031;-75
2023/05/02 03:21:25;;;;;;;3.70;2.88;;;8.20;99.90;;;;;;4984454;28;20086;-75
2023/05/02 03:23:51;;;;;;;3.42;3.13;;;8.20;99.90;;;;;;4983041;28;20030;-74
2023/05/02 03:26:17;;;;;;;3.88;3.35;;;8.10;99.90;;;;;;4982708;28;20411;-73
2023/05/02 03:28:46;;;;;;;4.05;3.50;;;8.10;99.90;;;;;;4983606;28;20058;-73
2023/05/02 03:31:13;;;;;;;4.00;3.00;;;8.20;99.90;;;;;;4982604;28;20058;-74
2023/05/02 03:33:39;;;;;;;4.28;3.38;;;8.30;99.90;;;;;;4983960;28;20026;-75
2023/05/02 03:36:06;;;;;;;3.90;2.92;;;8.30;99.90;;;;;;4966292;28;20027;-75
2023/05/02 03:38:31;;;;;;;3.85;3.17;;;8.30;99.90;;;;;;4983797;28;20118;-73
2023/05/02 03:40:57;;;;;;;4.07;3.30;;;8.30;99.90;;;;;;4983551;28;20062;-73
2023/05/02 03:43:23;;;;;;;3.85;2.97;;;8.30;99.90;;;;;;4983735;28;20027;-74
2023/05/02 03:45:48;;;;;;;3.95;3.05;;;8.30;99.90;;;;;;4983449;28;20061;-73
2023/05/02 03:48:14;;;;;;;3.97;2.90;;;8.30;99.90;;;;;;4966574;28;20033;-73
2023/05/02 03:50:40;;;;;;;3.78;3.38;;;8.20;99.90;;;;;;4983089;28;20387;-74
2023/05/02 03:53:07;;;;;;;3.08;2.85;;;8.10;99.90;;;;;;4982673;28;20031;-74
2023/05/02 03:55:32;;;;;;;3.60;3.30;;;8.10;99.90;;;;;;4982796;28;20031;-74
2023/05/02 03:57:58;;;;;;;3.83;3.40;;;8.10;99.90;;;;;;4983357;28;20521;-74
2023/05/02 04:00:24;;;;;;;3.47;3.17;;;8.10;99.90;;;;;;4972085;28;20034;-74
2023/05/02 04:02:50;;;;;;;5.28;3.92;;;8.20;99.90;;;;;;4981008;28;20372;-75
2023/05/02 04:05:16;;;;;;;7.65;4.95;;;8.20;99.90;;;;;;4982481;28;20473;-78
2023/05/02 04:07:41;;;;;;;5.88;4.35;;;8.20;99.90;;;;;;4982674;28;20031;-76
2023/05/02 04:10:15;;;;;;;6.47;4.25;;;8.20;99.90;;;;;;4982568;28;20035;-75
2023/05/02 04:12:41;;;;;;;6.00;4.45;;;8.30;99.90;;;;;;4981092;28;20039;-75
2023/05/02 04:15:07;;;;;;;5.10;4.07;;;8.30;99.90;;;;;;4963452;28;20086;-75
2023/05/02 04:17:33;;;;;;;4.43;3.20;;;8.30;99.90;;;;;;4980054;28;20035;-74
2023/05/02 04:19:58;;;;;;;4.05;3.47;;;8.40;99.90;;;;;;4981824;28;20085;-74
2023/05/02 04:22:24;;;;;;;6.60;4.00;;;8.30;99.90;;;;;;4983499;28;20122;-75
2023/05/02 04:24:50;;;;;;;6.20;4.07;;;8.30;99.90;;;;;;4981148;28;20030;-73
2023/05/02 04:27:16;;;;;;;3.92;3.53;;;8.30;99.90;;;;;;4980814;28;20037;-75
2023/05/02 04:29:42;;;;;;;4.82;3.72;;;8.30;99.90;;;;;;4980506;28;20031;-75
2023/05/02 04:32:07;;;;;;;5.10;3.97;;;8.30;99.90;;;;;;4980733;28;20065;-74
2023/05/02 04:34:33;;;;;;;8.05;4.30;;;8.30;99.90;;;;;;4964509;28;20031;-75
2023/05/02 04:37:00;;;;;;;5.10;3.85;;;8.20;99.90;;;;;;4982312;28;20027;-74
2023/05/02 04:39:26;;;;;;;4.38;3.67;;;8.20;99.90;;;;;;4981512;28;20026;-74
2023/05/02 04:41:52;;;;;;;5.35;3.90;;;8.10;99.90;;;;;;4981843;28;20026;-74
2023/05/02 04:44:17;;;;;;;12.43;10.85;;;8.10;99.90;;;;;;4980380;28;20059;-75
2023/05/02 04:46:43;;;;;;;10.63;9.00;;;8.10;99.90;;;;;;4981752;28;20031;-75
2023/05/02 04:49:10;;;;;;;8.48;7.20;;;8.20;99.90;;;;;;4964504;28;20037;-74
2023/05/02 04:51:36;;;;;;;8.00;5.53;;;8.20;99.90;;;;;;4980874;28;20030;-74
2023/05/02 04:54:01;;;;;;;4.72;4.00;;;8.20;99.90;;;;;;4982024;28;20121;-75
2023/05/02 04:56:27;;;;;;;6.20;4.43;;;8.20;99.90;;;;;;4982830;28;20042;-75
2023/05/02 04:58:53;;;;;;;6.03;4.10;;;8.20;99.90;;;;;;4980479;28;20031;-75
2023/05/02 05:01:18;;;;;;;6.53;4.70;;;8.20;99.90;;;;;;4978707;28;20042;-81
2023/05/02 05:03:44;;;;;;;6.85;4.45;;;8.30;99.90;;;;;;4979411;28;20038;-76
2023/05/02 05:06:09;;;;;;;5.50;4.25;;;8.20;99.90;;;;;;4979219;28;20051;-76
2023/05/02 05:08:35;;;;;;;5.20;4.15;;;8.30;99.90;;;;;;4979388;28;20046;-74
2023/05/02 05:11:01;;;;;;;8.60;4.70;;;8.30;99.90;;;;;;4979851;28;20062;-74
2023/05/02 05:13:27;;;;;;;5.40;3.97;;;8.30;99.90;;;;;;4981753;28;20035;-75
2023/05/02 05:15:53;;;;;;;5.45;4.10;;;8.30;99.90;;;;;;4982707;28;20032;-75
2023/05/02 05:18:19;;;;;;;5.60;4.22;;;8.30;99.90;;;;;;4981870;28;20033;-75
2023/05/02 05:20:44;;;;;;;5.95;4.03;;;8.30;99.90;;;;;;4964907;28;20138;-74
2023/05/02 05:23:10;;;;;;;4.80;4.10;;;8.40;99.90;;;;;;4983083;28;20113;-75
2023/05/02 05:25:36;;;;;;;6.93;4.50;;;8.30;99.90;;;;;;4981985;28;20454;-75
2023/05/02 05:28:01;;;;;;;7.50;5.07;;;8.40;99.90;;;;;;4981383;28;20109;-74
2023/05/02 05:30:29;;;;;;;6.30;4.60;;;8.40;99.90;;;;;;4981073;28;20030;-74
2023/05/02 05:32:57;;;;;;;7.18;4.68;;;8.40;99.90;;;;;;4982654;28;20039;-75
2023/05/02 05:35:24;;;;;;;7.53;4.70;;;8.50;99.90;;;;;;4982413;28;20043;-75
2023/05/02 05:37:50;;;;;;;6.20;4.28;;;8.50;99.90;;;;;;4965181;28;20026;-74
2023/05/02 05:40:16;;;;;;;6.05;4.90;;;8.60;99.90;;;;;;4982676;28;20026;-74
2023/05/02 05:42:42;;;;;;;6.18;4.53;;;8.70;99.90;;;;;;4981816;28;20039;-74
2023/05/02 05:45:08;;;;;;;5.68;4.60;;;8.70;99.90;;;;;;4981118;28;20117;-74
2023/05/02 05:47:34;;;;;;;7.28;5.10;;;8.70;99.90;;;;;;4981391;28;20027;-74
2023/05/02 05:50:00;;;;;;;5.93;4.45;;;8.80;99.90;;;;;;4981428;28;20027;-74
2023/05/02 05:52:26;;;;;;;6.15;4.43;;;8.80;99.90;;;;;;4981105;28;20097;-74
2023/05/02 05:54:55;;;;;;;5.47;4.85;;;8.80;99.90;;;;;;4980236;28;20034;-74
2023/05/02 05:57:21;;;;;;;6.70;5.00;;;8.90;99.90;;;;;;4983266;28;20027;-79
2023/05/02 05:59:47;;;;;;;8.07;5.07;;;9.00;99.90;;;;;;4982960;28;20451;-77
2023/05/02 06:02:14;;;;;;;5.63;4.35;;;9.00;99.90;;;;;;4963331;28;20034;-75
2023/05/02 06:04:40;;;;;;;8.82;5.35;;;9.00;99.90;;;;;;4982340;28;20034;-74
2023/05/02 06:07:05;;;;;;;6.00;4.53;;;9.20;99.90;;;;;;4981712;28;20027;-74
2023/05/02 06:09:31;;;;;;;7.65;5.00;;;9.20;99.90;;;;;;4981559;28;20042;-74
2023/05/02 06:11:57;;;;;;;7.35;4.85;;;9.20;99.90;;;;;;4982688;28;20094;-74
2023/05/02 06:14:23;;;;;;;7.90;4.95;;;9.20;99.90;;;;;;4980279;28;20042;-74
2023/05/02 06:16:48;;;;;;;6.47;4.68;;;9.20;99.90;;;;;;4982237;28;20114;-74
2023/05/02 06:19:14;;;;;;;6.95;4.78;;;9.30;99.90;;;;;;4983706;28;20046;-75
2023/05/02 06:21:43;;;;;;;7.03;5.40;;;9.30;99.90;;;;;;4963282;28;20061;-74
2023/05/02 06:24:09;;;;;;;6.55;5.43;;;9.30;99.90;;;;;;4979662;28;20364;-74
2023/05/02 06:26:35;;;;;;;8.25;5.43;;;9.40;99.90;;;;;;4979887;28;20081;-73
2023/05/02 06:29:01;;;;;;;7.85;5.50;;;9.40;99.90;;;;;;4979582;28;20039;-73
2023/05/02 06:31:27;;;;;;;6.65;4.53;;;9.50;99.90;;;;;;4979576;28;20066;-73
2023/05/02 06:33:53;;;;;;;6.70;5.55;;;9.60;99.90;;;;;;4963601;28;20053;-75
2023/05/02 06:36:19;;;;;;;7.88;5.30;;;9.60;99.90;;;;;;4981554;28;20479;-75
2023/05/02 06:38:45;;;;;;;8.27;5.68;;;9.70;99.90;;;;;;4980809;28;20031;-74
2023/05/02 06:41:14;;;;;;;7.93;4.90;;;9.80;99.90;;;;;;4981734;28;20034;-75
2023/05/02 06:43:40;;;;;;;8.07;5.55;;;10.00;99.90;;;;;;4981975;28;20165;-75
2023/05/02 06:46:07;;;;;;;8.05;5.55;;;10.00;99.90;;;;;;4981846;28;20038;-75
2023/05/02 06:48:34;;;;;;;7.55;5.72;;;10.10;99.90;;;;;;4981379;28;20039;-74
2023/05/02 06:51:02;;;;;;;8.07;5.78;;;10.20;99.90;;;;;;4981996;28;20106;-75
2023/05/02 06:53:29;;;;;;;8.40;6.22;;;10.40;99.90;;;;;;4981416;28;20046;-75
2023/05/02 06:55:55;;;;;;;6.05;4.78;;;10.50;99.90;;;;;;4981375;28;20085;-82
2023/05/02 06:58:20;;;;;;;6.55;5.22;;;10.50;99.90;;;;;;4981357;28;20493;-75
2023/05/02 07:00:47;;;;;;;8.45;5.35;;;10.40;99.90;;;;;;4980101;28;20509;-75
2023/05/02 07:03:13;;;;;;;9.35;6.15;;;10.50;99.90;;;;;;4980592;28;20039;-74
2023/05/02 07:05:42;;;;;;;7.45;5.68;;;10.70;99.90;;;;;;4980721;28;20119;-74
2023/05/02 07:08:09;;;;;;;8.40;6.22;;;10.80;99.90;;;;;;4981588;28;20026;-74
2023/05/02 07:10:35;;;;;;;9.00;6.68;;;10.80;99.90;;;;;;4981030;28;20034;-74
2023/05/02 07:13:01;;;;;;;9.05;5.80;;;10.90;99.90;;;;;;4981403;28;20034;-75
2023/05/02 07:15:30;;;;;;;7.88;5.80;;;11.00;99.90;;;;;;4964478;28;20035;-75
2023/05/02 07:17:56;;;;;;;10.30;7.07;;;11.10;99.90;;;;;;4980177;28;20422;-75
2023/05/02 07:20:22;;;;;;;9.43;6.15;;;11.20;99.90;;;;;;4961081;29;20062;-75
2023/05/02 07:22:47;;;;;;;7.88;5.68;;;11.30;99.90;;;;;;4962248;28;20375;-75
2023/05/02 07:25:13;;;;;;;12.48;6.43;;;11.40;99.90;;;;;;4962595;28;20055;-75
2023/05/02 07:27:39;;;;;;;9.85;6.80;;;11.40;99.90;;;;;;4976559;28;20042;-76
2023/05/02 07:30:05;;;;;;;9.98;7.22;;;11.50;99.90;;;;;;4960841;28;20034;-75
2023/05/02 07:32:34;;;;;;;8.63;6.15;;;11.70;99.90;;;;;;4961080;28;20420;-75
2023/05/02 07:35:00;;;;;;;10.25;6.82;;;11.80;99.90;;;;;;4961697;28;20403;-76
2023/05/02 07:37:26;;;;;;;9.77;6.72;;;11.90;99.90;;;;;;4960458;28;20099;-74
2023/05/02 07:39:52;;;;;;;9.68;7.00;;;11.80;99.90;;;;;;4962052;28;20073;-75
2023/05/02 07:42:17;;;;;;;10.25;7.07;;;11.70;99.90;;;;;;4943658;29;20027;-75
2023/05/02 07:44:43;;;;;;;6.55;5.43;;;11.80;99.90;;;;;;4961264;28;20024;-76
2023/05/02 07:47:09;;;;;;;8.88;6.85;;;11.80;99.90;;;;;;4961979;28;20036;-75
2023/05/02 07:49:36;;;;;;;9.85;6.90;;;11.80;99.90;;;;;;4961806;28;20027;-73
2023/05/02 07:52:02;;;;;;;9.50;6.88;;;12.10;99.90;;;;;;4962242;28;20043;-80
2023/05/02 07:54:28;;;;;;;9.15;7.07;;;12.40;99.90;;;;;;4961909;28;20031;-75
2023/05/02 07:56:57;;;;;;;8.80;7.18;;;12.60;99.90;;;;;;4961522;28;20120;-75
2023/05/02 07:59:22;;;;;;;9.25;7.25;;;12.70;99.90;;;;;;4962820;28;20086;-76
2023/05/02 08:01:48;;;;;;;8.48;6.78;;;13.00;99.90;;;;;;4961659;28;20043;-73
2023/05/02 08:04:13;;;;;;;9.25;6.70;;;12.90;99.90;;;;;;4961454;28;20032;-75
2023/05/02 08:06:39;;;;;;;10.73;7.30;;;13.00;99.90;;;;;;4962719;28;20519;-75
2023/05/02 08:09:05;;;;;;;8.93;6.55;;;13.00;99.90;;;;;;4963032;28;20451;-75
2023/05/02 08:11:31;;;;;;;8.75;6.57;;;13.20;99.90;;;;;;4963101;28;20035;-75
2023/05/02 08:13:57;;;;;;;9.77;6.68;;;13.30;99.90;;;;;;4962099;28;20043;-75
2023/05/02 08:16:22;;;;;;;8.10;6.00;;;13.20;99.90;;;;;;4961429;29;20027;-76
2023/05/02 08:18:48;;;;;;;7.63;6.63;;;13.20;99.90;;;;;;4961120;28;20114;-75
2023/05/02 08:21:13;;;;;;;9.90;5.93;;;13.20;99.90;;;;;;4975956;28;20552;-76
2023/05/02 08:23:40;;;;;;;9.35;5.90;;;13.00;99.90;;;;;;4980856;28;20031;-75
2023/05/02 08:26:06;;;;;;;9.38;6.43;;;13.10;99.90;;;;;;4980528;28;20026;-75
2023/05/02 08:28:32;;;;;;;10.45;7.07;;;13.20;99.90;;;;;;4962678;28;20043;-75
2023/05/02 08:30:58;;;;;;;8.98;5.85;;;13.10;99.90;;;;;;4979325;28;20126;-75
2023/05/02 08:33:23;;;;;;;8.82;6.18;;;13.20;99.90;;;;;;4980146;28;20110;-75
2023/05/02 08:35:49;;;;;;;6.78;5.82;;;13.30;99.90;;;;;;4979819;28;20034;-76
2023/05/02 08:38:15;;;;;;;9.40;6.40;;;13.50;99.90;;;;;;4962584;28;20078;-76
2023/05/02 08:40:40;;;;;;;7.63;6.18;;;13.60;99.90;;;;;;4979089;28;20062;-76
2023/05/02 08:43:07;;;;;;;9.00;7.18;;;13.60;99.90;;;;;;4981940;28;20058;-76
2023/05/02 08:45:39;;;;;;;8.80;6.32;;;13.50;99.90;;;;;;4980147;28;20027;-82
2023/05/02 08:48:13;;;;;;;7.97;6.30;;;13.50;99.90;;;;;;4980489;28;20034;-78
2023/05/02 08:50:42;;;;;;;8.98;6.88;;;13.30;99.90;;;;;;4981278;28;20035;-78
2023/05/02 08:53:10;;;;;;;9.38;5.80;;;13.20;99.90;;;;;;4978690;28;20045;-75
2023/05/02 08:55:40;;;;;;;7.57;6.15;;;13.30;99.90;;;;;;4978876;28;20038;-75
2023/05/02 08:58:10;;;;;;;7.55;5.38;;;13.40;99.90;;;;;;4978995;28;20113;-74
2023/05/02 09:00:40;;;;;;;8.50;6.85;;;13.40;99.90;;;;;;4960948;28;20070;-75
2023/05/02 09:03:21;;;;;;;7.40;5.70;;;13.40;99.90;;;;;;4979671;28;20035;-76
2023/05/02 09:05:53;;;;;;;8.68;5.78;;;13.50;99.90;;;;;;4978402;28;20066;-74
2023/05/02 09:08:23;;;;;;;8.02;5.95;;;13.50;99.90;;;;;;4978872;28;20053;-74
2023/05/02 09:10:50;;;;;;;8.10;6.00;;;13.70;99.90;;;;;;4978986;28;20035;-74
2023/05/02 09:13:37;;;;;;;8.20;6.30;;;13.70;99.90;;;;;;4978837;28;20035;-74
2023/05/02 09:16:09;;;;;;;6.75;5.60;;;13.70;99.90;;;;;;4978138;28;20034;-74
2023/05/02 09:18:44;;;;;;;9.52;6.30;;;13.80;99.90;;;;;;4961510;28;20088;-74
2023/05/02 09:21:40;;;;;;;8.43;6.32;;;14.10;99.90;;;;;;4977437;28;20398;-74
2023/05/02 09:24:19;;;;;;;10.77;6.72;;;13.90;99.90;;;;;;4972643;28;20069;-74
2023/05/02 09:27:04;;;;;;;8.75;6.10;;;13.80;99.90;;;;;;4960349;28;20061;-73
2023/05/02 09:29:36;;;;;;;8.02;5.75;;;13.80;99.90;;;;;;4976862;28;20035;-74
2023/05/02 09:32:03;;;;;;;8.07;6.45;;;13.90;99.90;;;;;;4975680;28;20055;-74
2023/05/02 09:34:29;;;;;;;9.07;6.72;;;14.00;99.90;;;;;;4977603;28;20035;-75
2023/05/02 09:36:56;;;;;;;7.95;6.13;;;14.30;99.90;;;;;;4978562;28;20031;-73
2023/05/02 09:39:25;;;;;;;7.80;5.70;;;14.50;99.90;;;;;;4977620;28;20071;-74
2023/05/02 09:41:50;;;;;;;8.75;6.70;;;14.70;99.90;;;;;;4978057;28;20027;-74
2023/05/02 09:44:19;;;;;;;6.97;5.57;;;14.50;99.90;;;;;;4976905;28;20039;-73
2023/05/02 09:46:51;;;;;;;7.60;5.97;;;14.40;99.90;;;;;;4960219;28;20094;-77
2023/05/02 09:49:18;;;;;;;8.00;6.05;;;14.30;99.90;;;;;;4959842;28;20049;-75
2023/05/02 09:51:47;;;;;;;6.82;5.90;;;14.20;99.90;;;;;;4976872;28;20031;-76
2023/05/02 09:54:13;;;;;;;8.70;5.82;;;14.10;99.90;;;;;;4976690;28;20475;-74
2023/05/02 09:56:55;;;;;;;8.13;6.20;;;14.20;99.90;;;;;;4977670;28;20118;-73
2023/05/02 09:59:22;;;;;;;8.10;6.63;;;14.30;99.90;;;;;;4978366;28;20451;-74
2023/05/02 10:01:56;;;;;;;6.85;5.57;;;14.30;99.90;;;;;;4979179;28;20067;-73
2023/05/02 10:04:22;;;;;;;8.90;6.55;;;14.30;99.90;;;;;;4980288;28;20033;-73
2023/05/02 10:06:50;;;;;;;7.90;6.55;;;14.10;99.90;;;;;;4980060;28;20026;-74
2023/05/02 10:09:31;;;;;;;8.55;6.13;;;13.80;99.90;;;;;;4979343;28;20027;-74
2023/05/02 10:12:03;;;;;;;11.38;6.78;;;13.90;99.90;;;;;;4980592;28;20545;-75
2023/05/02 10:14:43;;;;;;;9.02;6.20;;;13.90;99.90;;;;;;4980216;28;20031;-74
2023/05/02 10:17:12;;;;;;;8.95;6.50;;;13.90;99.90;;;;;;4980132;28;20023;-74
2023/05/02 10:19:58;;;;;;;10.70;6.97;;;13.80;99.90;;;;;;4980174;28;20092;-74
2023/05/02 10:22:25;;;;;;;7.70;6.85;;;13.90;99.90;;;;;;4978894;28;20387;-76
2023/05/02 10:25:00;;;;;;;7.25;6.10;;;13.90;99.90;;;;;;4980593;28;20035;-73
2023/05/02 10:27:30;;;;;;;9.38;6.32;;;13.90;99.90;;;;;;4978770;28;20034;-75
2023/05/02 10:30:15;;;;;;;10.63;7.35;;;14.10;99.90;;;;;;4963860;28;20093;-73
2023/05/02 10:32:42;;;;;;;9.95;6.35;;;14.10;99.90;;;;;;4960463;28;20043;-76
2023/05/02 10:35:11;;;;;;;8.70;6.77;;;14.00;99.90;;;;;;4979387;28;20450;-73
2023/05/02 10:37:39;;;;;;;10.18;6.82;;;14.10;99.90;;;;;;4979734;28;20030;-75
2023/05/02 10:40:28;;;;;;;9.35;6.93;;;14.30;99.90;;;;;;4961964;28;20054;-74
2023/05/02 10:42:55;;;;;;;9.73;7.15;;;14.60;99.90;;;;;;4972375;28;20089;-75
2023/05/02 10:45:47;;;;;;;8.13;6.15;;;14.40;99.90;;;;;;4979190;28;20031;-76
2023/05/02 10:48:37;;;;;;;8.85;7.20;;;14.50;99.90;;;;;;4965024;28;20054;-75
2023/05/02 10:51:34;;;;;;;9.18;7.00;;;14.70;99.90;;;;;;4980497;28;20366;-75
2023/05/02 10:54:24;;;;;;;8.23;6.43;;;14.80;99.90;;;;;;4976294;28;20130;-73
2023/05/02 10:56:58;;;;;;;7.32;6.28;;;15.30;99.90;;;;;;4979819;28;20155;-74
2023/05/02 10:59:42;;;;;;;6.93;5.90;;;15.80;99.90;;;;;;4980191;28;20031;-73
2023/05/02 11:02:24;;;;;;;6.95;6.07;;;15.70;99.90;;;;;;4978057;28;20403;-74
2023/05/02 11:05:05;;;;;;;8.20;6.38;;;15.30;99.90;;;;;;4979175;28;20023;-75
2023/05/02 11:07:34;;;;;;;8.13;6.20;;;14.70;99.90;;;;;;4979758;28;20526;-74
2023/05/02 11:10:15;;;;;;;6.93;5.97;;;14.70;99.90;;;;;;4979587;28;20019;-74
2023/05/02 11:12:48;;;;;;;9.00;6.13;;;15.40;99.90;;;;;;4979208;28;20042;-74
2023/05/02 11:15:37;;;;;;;8.60;6.30;;;15.60;99.90;;;;;;4962380;28;20030;-73
2023/05/02 11:18:06;;;;;;;8.85;6.38;;;15.30;99.90;;;;;;4979726;28;20386;-74
2023/05/02 11:20:32;;;;;;;7.30;6.13;;;15.40;99.90;;;;;;4979968;28;20059;-75
2023/05/02 11:23:31;;;;;;;6.38;5.50;;;15.50;99.90;;;;;;4962929;28;20035;-74
2023/05/02 11:25:59;;;;;;;6.85;5.25;;;15.40;99.90;;;;;;4979876;28;20042;-73
2023/05/02 11:28:38;;;;;;;6.57;5.38;;;15.40;99.90;;;;;;4978835;28;20475;-74
2023/05/02 11:31:05;;;;;;;7.10;5.82;;;15.40;99.90;;;;;;4978340;28;20085;-74
2023/05/02 11:33:30;;;;;;;7.00;5.78;;;15.30;99.90;;;;;;4979090;28;20105;-74
2023/05/02 11:35:57;;;;;;;7.95;6.45;;;15.20;99.90;;;;;;4979173;28;20022;-74
2023/05/02 11:38:25;;;;;;;8.15;5.55;;;15.10;99.90;;;;;;4978519;28;20073;-74
2023/05/02 11:40:55;;;;;;;6.13;5.53;;;15.00;99.90;;;;;;4978413;28;20037;-74
2023/05/02 11:43:23;;;;;;;6.72;4.85;;;15.00;99.90;;;;;;4978960;28;20043;-74
2023/05/02 11:45:49;;;;;;;5.25;4.75;;;15.00;99.90;;;;;;4978826;28;20041;-74
2023/05/02 11:48:17;;;;;;;5.88;4.78;;;15.00;99.90;;;;;;4979205;28;20463;-74
2023/05/02 11:50:47;;;;;;;4.82;4.32;;;15.20;99.90;;;;;;4979057;28;20035;-74
2023/05/02 11:53:15;;;;;;;4.82;4.20;;;15.40;99.90;;;;;;4977653;28;20041;-74
2023/05/02 11:55:49;;;;;;;4.18;3.72;;;15.60;99.90;;;;;;4978911;28;20042;-73
2023/05/02 11:58:17;;;;;;;4.30;3.72;;;15.50;99.90;;;;;;4979298;28;20042;-73
2023/05/02 12:00:45;;;;;;;4.00;3.60;;;15.90;99.90;;;;;;4977635;28;20035;-74
2023/05/02 12:03:21;;;;;;;;;;;16.20;99.90;;;;;;4978593;28;20493;-75
2023/05/02 12:05:47;;;;;;;3.75;3.33;;;16.60;99.90;;;;;;4978690;28;19910;-72
2023/05/02 12:08:28;;;;;;;4.03;3.25;;;17.00;99.90;;;;;;4978343;28;20053;-73
2023/05/02 12:10:55;;;;;;;4.47;3.22;;;17.00;99.90;;;;;;4978184;28;20069;-74
2023/05/02 12:13:23;;;;;;;3.37;3.07;;;17.50;99.90;;;;;;4978410;28;20038;-74
2023/05/02 12:15:50;;;;;;;3.38;3.08;;;17.60;99.90;;;;;;4977973;28;20077;-74
2023/05/02 12:18:17;;;;;;;4.03;3.03;;;17.90;99.90;;;;;;4978236;28;20094;-73
2023/05/02 12:20:44;;;;;;;4.72;3.67;;;17.50;99.90;;;;;;4978496;28;20054;-73
2023/05/02 12:23:10;;;;;;;3.30;3.00;;;17.30;99.90;;;;;;4977865;28;20062;-75
2023/05/02 12:25:40;;;;;;;3.35;3.05;;;16.40;99.90;;;;;;4978157;28;20082;-74
2023/05/02 12:28:06;;;;;;;3.40;3.10;;;16.20;99.90;;;;;;4961668;28;20026;-74
2023/05/02 12:30:32;;;;;;;3.17;2.88;;;16.10;99.90;;;;;;4977698;28;20030;-74
2023/05/02 12:33:02;;;;;;;3.60;3.30;;;16.30;99.90;;;;;;4978457;28;20062;-74
2023/05/02 12:35:30;;;;;;;3.45;3.15;;;16.60;99.90;;;;;;4978621;28;20034;-74
2023/05/02 12:38:13;;;;;;;3.37;2.80;;;17.20;99.90;;;;;;4978706;28;20029;-75
2023/05/02 12:40:49;;;;;;;3.70;2.88;;;17.60;99.90;;;;;;4979001;28;20033;-75
2023/05/02 12:43:15;;;;;;;5.38;2.78;;;17.50;99.90;;;;;;4979337;28;20030;-75
2023/05/02 12:45:41;;;;;;;3.00;2.70;;;17.70;98.30;;;;;;4961553;28;20031;-73
2023/05/02 12:48:26;;;;;;;3.88;2.72;;;17.60;93.80;;;;;;4977821;28;20024;-74
2023/05/02 12:50:54;;;;;;;3.30;2.95;;;17.90;93.20;;;;;;4977244;28;20435;-73
2023/05/02 12:53:42;;;;;;;3.42;3.13;;;18.10;94.60;;;;;;4977803;28;20054;-74
2023/05/02 12:56:07;;;;;;;;;;;17.70;95.60;;;;;;4979351;28;20515;-75
2023/05/02 12:58:44;;;;;;;5.68;3.45;;;18.10;94.60;;;;;;4977943;28;19960;-76
2023/05/02 13:01:11;;;;;;;3.65;3.00;;;17.70;99.90;;;;;;4981391;28;20114;-76
2023/05/02 13:03:37;;;;;;;3.60;3.30;;;17.10;99.90;;;;;;4981422;28;20023;-75
2023/05/02 13:06:04;;;;;;;4.38;3.53;;;17.00;99.90;;;;;;4979424;28;20058;-75
2023/05/02 13:08:30;;;;;;;5.22;3.15;;;16.80;99.90;;;;;;4980956;28;20383;-77
2023/05/02 13:10:56;;;;;;;4.10;3.30;;;16.60;99.90;;;;;;4979693;28;20418;-74